createdAt,value
2022-08-23T00:02:29.374Z,20.50
2022-08-23T00:05:08.145Z,20.50
2022-08-23T00:07:38.674Z,20.50
2022-08-23T00:10:08.653Z,20.40
2022-08-23T00:12:37.197Z,20.50
2022-08-23T00:15:06.338Z,20.40
2022-08-23T00:17:35.523Z,20.40
2022-08-23T00:20:05.217Z,20.40
2022-08-23T00:22:33.540Z,20.40
2022-08-23T00:25:01.602Z,20.40
2022-08-23T00:27:30.117Z,20.40
2022-08-23T00:29:59.269Z,20.40
2022-08-23T00:32:29.600Z,20.40
2022-08-23T00:34:58.385Z,20.30
2022-08-23T00:37:28.562Z,20.40
2022-08-23T00:39:56.728Z,20.40
2022-08-23T00:42:51.409Z,20.30
2022-08-23T00:45:55.905Z,20.20
2022-08-23T00:48:24.195Z,20.10
2022-08-23T00:50:58.450Z,19.90
2022-08-23T00:53:32.080Z,19.80
2022-08-23T00:56:03.464Z,19.70
2022-08-23T00:58:32.033Z,19.70
2022-08-23T01:01:01.907Z,19.60
2022-08-23T01:03:38.731Z,19.60
2022-08-23T01:06:12.383Z,19.50
2022-08-23T01:08:45.523Z,19.50
2022-08-23T01:11:20.109Z,19.50
2022-08-23T01:13:54.458Z,19.40
2022-08-23T01:16:33.577Z,19.40
2022-08-23T01:19:02.589Z,19.40
2022-08-23T01:21:36.627Z,19.30
2022-08-23T01:24:19.195Z,19.30
2022-08-23T01:26:59.759Z,19.30
2022-08-23T01:29:27.946Z,19.20
2022-08-23T01:31:56.520Z,19.20
2022-08-23T01:34:27.616Z,19.20
2022-08-23T01:36:56.225Z,19.20
2022-08-23T01:39:26.985Z,19.20
2022-08-23T01:41:55.359Z,19.20
2022-08-23T01:44:23.382Z,19.20
2022-08-23T01:46:58.017Z,19.10
2022-08-23T01:49:27.599Z,19.10
2022-08-23T01:51:56.784Z,19.10
2022-08-23T01:54:26.363Z,19.10
2022-08-23T01:56:54.409Z,19.20
2022-08-23T01:59:22.644Z,19.10
2022-08-23T02:01:54.809Z,19.10
2022-08-23T02:04:23.303Z,19.00
2022-08-23T02:06:51.406Z,19.00
2022-08-23T02:09:22.730Z,19.00
2022-08-23T02:11:58.084Z,19.00
2022-08-23T02:14:26.270Z,19.00
2022-08-23T02:17:04.556Z,18.90
2022-08-23T02:19:36.889Z,18.90
2022-08-23T02:22:07.642Z,18.90
2022-08-23T02:24:39.913Z,18.90
2022-08-23T02:27:10.225Z,18.90
2022-08-23T02:29:41.034Z,18.80
2022-08-23T02:32:14.130Z,18.80
2022-08-23T02:34:43.814Z,18.80
2022-08-23T02:37:13.712Z,18.80
2022-08-23T02:39:42.993Z,18.70
2022-08-23T02:42:13.543Z,18.70
2022-08-23T02:44:45.143Z,18.60
2022-08-23T02:47:13.514Z,18.60
2022-08-23T02:49:47.895Z,18.60
2022-08-23T02:52:16.583Z,18.50
2022-08-23T02:54:45.132Z,18.50
2022-08-23T02:57:14.506Z,18.40
2022-08-23T02:59:42.712Z,18.40
2022-08-23T03:02:11.285Z,18.40
2022-08-23T03:04:43.258Z,18.30
2022-08-23T03:07:11.931Z,18.30
2022-08-23T03:09:40.821Z,18.30
2022-08-23T03:12:10.750Z,18.40
2022-08-23T03:14:44.836Z,18.40
2022-08-23T03:17:14.392Z,18.40
2022-08-23T03:19:42.691Z,18.40
2022-08-23T03:22:10.920Z,18.30
2022-08-23T03:24:38.975Z,18.30
2022-08-23T03:27:07.521Z,18.20
2022-08-23T03:29:35.718Z,18.20
2022-08-23T03:32:07.375Z,18.10
2022-08-23T03:34:38.606Z,18.10
2022-08-23T03:37:08.858Z,18.10
2022-08-23T03:39:37.443Z,18.10
2022-08-23T03:42:06.101Z,18.10
2022-08-23T03:44:35.563Z,18.10
2022-08-23T03:47:06.569Z,18.10
2022-08-23T03:49:35.943Z,18.10
2022-08-23T03:52:04.586Z,18.00
2022-08-23T03:54:33.870Z,18.00
2022-08-23T03:57:05.848Z,18.00
2022-08-23T03:59:37.021Z,17.90
2022-08-23T04:02:10.124Z,17.90
2022-08-23T04:04:38.203Z,18.00
2022-08-23T04:07:24.926Z,17.90
2022-08-23T04:09:56.475Z,18.00
2022-08-23T04:12:27.010Z,17.90
2022-08-23T04:14:55.428Z,17.90
2022-08-23T04:17:26.160Z,18.00
2022-08-23T04:19:54.289Z,18.00
2022-08-23T04:22:22.485Z,18.00
2022-08-23T04:24:50.454Z,18.00
2022-08-23T04:27:18.796Z,17.90
2022-08-23T04:29:47.844Z,17.80
2022-08-23T04:32:26.547Z,17.70
2022-08-23T04:34:58.670Z,17.70
2022-08-23T04:37:28.054Z,17.70
2022-08-23T04:40:13.904Z,17.70
2022-08-23T04:42:43.926Z,17.70
2022-08-23T04:45:14.135Z,17.80
2022-08-23T04:47:45.962Z,17.70
2022-08-23T04:50:15.537Z,17.70
2022-08-23T04:53:08.879Z,17.70
2022-08-23T04:55:44.326Z,17.70
2022-08-23T04:58:12.532Z,17.90
2022-08-23T05:00:50.858Z,17.90
2022-08-23T05:03:22.371Z,18.00
2022-08-23T05:05:53.515Z,18.00
2022-08-23T05:08:25.306Z,18.00
2022-08-23T05:10:53.829Z,18.00
2022-08-23T05:13:22.210Z,18.20
2022-08-23T05:15:52.482Z,18.30
2022-08-23T05:18:22.015Z,18.30
2022-08-23T05:20:53.811Z,18.20
2022-08-23T05:23:23.532Z,18.20
2022-08-23T05:26:05.904Z,18.20
2022-08-23T05:28:44.447Z,18.20
2022-08-23T05:31:16.436Z,18.20
2022-08-23T05:33:48.739Z,18.20
2022-08-23T05:36:23.286Z,18.30
2022-08-23T05:38:53.219Z,18.30
2022-08-23T05:41:22.700Z,18.30
2022-08-23T05:44:01.455Z,18.40
2022-08-23T05:46:30.685Z,18.50
2022-08-23T05:49:18.516Z,18.60
2022-08-23T05:51:51.796Z,18.60
2022-08-23T05:54:21.494Z,18.60
2022-08-23T05:57:03.037Z,18.70
2022-08-23T05:59:31.642Z,18.70
2022-08-23T06:01:59.650Z,18.90
2022-08-23T06:04:27.665Z,18.90
2022-08-23T06:06:58.844Z,19.00
2022-08-23T06:09:27.437Z,19.20
2022-08-23T06:11:55.439Z,19.10
2022-08-23T06:14:23.682Z,19.20
2022-08-23T06:16:55.809Z,19.20
2022-08-23T06:19:27.047Z,19.30
2022-08-23T06:22:14.995Z,19.40
2022-08-23T06:24:43.776Z,19.40
2022-08-23T06:27:14.165Z,19.50
2022-08-23T06:29:43.530Z,19.60
2022-08-23T06:32:29.987Z,19.70
2022-08-23T06:35:38.389Z,19.70
2022-08-23T06:38:32.740Z,19.80
2022-08-23T06:41:30.109Z,20.00
2022-08-23T06:44:16.800Z,20.10
2022-08-23T06:47:08.694Z,20.10
2022-08-23T06:49:37.077Z,20.30
2022-08-23T06:52:05.516Z,20.20
2022-08-23T06:55:13.903Z,20.40
2022-08-23T06:58:12.546Z,20.60
2022-08-23T07:01:28.577Z,20.90
2022-08-23T07:04:12.301Z,21.10
2022-08-23T07:06:59.767Z,21.10
2022-08-23T07:09:27.918Z,21.10
2022-08-23T07:11:59.034Z,21.30
2022-08-23T07:14:28.271Z,21.40
2022-08-23T07:16:59.405Z,21.70
2022-08-23T07:19:30.618Z,22.00
2022-08-23T07:22:00.259Z,22.60
2022-08-23T07:24:33.373Z,24.30
2022-08-23T07:27:08.630Z,26.70
2022-08-23T07:29:43.026Z,28.70
2022-08-23T07:32:11.592Z,30.00
2022-08-23T07:34:39.946Z,31.50
2022-08-23T07:37:11.371Z,32.90
2022-08-23T07:39:45.000Z,33.50
2022-08-23T07:42:22.805Z,33.80
2022-08-23T07:44:53.615Z,34.20
2022-08-23T07:47:23.504Z,34.60
2022-08-23T07:49:52.416Z,33.80
2022-08-23T07:52:20.462Z,32.60
2022-08-23T07:54:49.624Z,30.90
2022-08-23T07:57:48.822Z,29.40
2022-08-23T08:00:42.113Z,27.90
2022-08-23T08:03:28.902Z,27.70
2022-08-23T08:06:12.541Z,28.90
2022-08-23T08:08:41.844Z,31.00
2022-08-23T08:11:12.230Z,32.50
2022-08-23T08:13:43.763Z,32.50
2022-08-23T08:16:20.563Z,32.50
2022-08-23T08:18:48.728Z,32.50
2022-08-23T08:21:42.823Z,32.90
2022-08-23T08:24:33.469Z,34.40
2022-08-23T08:27:09.268Z,35.60
2022-08-23T08:29:38.725Z,36.20
2022-08-23T08:32:08.129Z,36.10
2022-08-23T08:34:42.499Z,37.20
2022-08-23T08:37:12.101Z,37.30
2022-08-23T08:39:45.620Z,37.60
2022-08-23T08:42:31.561Z,37.80
2022-08-23T08:45:05.332Z,37.50
2022-08-23T08:47:41.726Z,37.60
2022-08-23T08:50:15.781Z,37.90
2022-08-23T08:52:47.885Z,37.90
2022-08-23T08:55:33.076Z,36.90
2022-08-23T08:58:03.598Z,37.30
2022-08-23T09:00:35.436Z,37.30
2022-08-23T09:03:10.467Z,37.30
2022-08-23T09:05:46.743Z,37.20
2022-08-23T09:08:36.920Z,36.90
2022-08-23T09:11:11.047Z,37.20
2022-08-23T09:14:00.702Z,37.20
2022-08-23T09:16:46.292Z,37.50
2022-08-23T09:19:14.777Z,36.90
2022-08-23T09:21:47.898Z,37.00
2022-08-23T09:24:16.303Z,37.40
2022-08-23T09:26:58.847Z,37.30
2022-08-23T09:29:29.693Z,37.10
2022-08-23T09:32:02.408Z,37.10
2022-08-23T09:34:44.207Z,37.10
2022-08-23T09:37:19.339Z,36.50
2022-08-23T09:39:50.552Z,36.10
2022-08-23T09:42:31.167Z,36.00
2022-08-23T09:45:01.026Z,35.50
2022-08-23T09:47:44.414Z,35.80
2022-08-23T09:50:24.089Z,35.70
2022-08-23T09:52:57.157Z,36.00
2022-08-23T09:55:32.753Z,36.10
2022-08-23T09:58:02.220Z,35.80
2022-08-23T10:00:35.044Z,35.70
2022-08-23T10:03:27.559Z,36.10
2022-08-23T10:06:03.100Z,36.10
2022-08-23T10:08:42.381Z,36.40
2022-08-23T10:11:19.537Z,36.80
2022-08-23T10:13:49.026Z,36.90
2022-08-23T10:16:29.279Z,36.30
2022-08-23T10:19:15.757Z,35.90
2022-08-23T10:21:54.070Z,35.30
2022-08-23T10:24:31.171Z,35.50
2022-08-23T10:27:38.385Z,35.80
2022-08-23T10:30:11.747Z,36.10
2022-08-23T10:32:50.674Z,36.10
2022-08-23T10:35:35.952Z,35.60
2022-08-23T10:38:23.822Z,35.00
2022-08-23T10:41:03.889Z,34.50
2022-08-23T10:43:39.929Z,33.80
2022-08-23T10:46:09.293Z,33.10
2022-08-23T10:48:51.327Z,32.60
2022-08-23T10:51:31.589Z,32.30
2022-08-23T10:54:06.290Z,32.10
2022-08-23T10:56:35.653Z,31.70
2022-08-23T10:59:10.104Z,31.80
2022-08-23T11:01:45.280Z,31.90
2022-08-23T11:04:23.056Z,32.00
2022-08-23T11:07:17.153Z,31.80
2022-08-23T11:10:09.901Z,31.70
2022-08-23T11:12:55.513Z,31.70
2022-08-23T11:15:44.597Z,31.80
2022-08-23T11:18:38.575Z,31.60
2022-08-23T11:21:33.574Z,31.60
2022-08-23T11:24:33.204Z,31.70
2022-08-23T11:27:07.763Z,31.60
2022-08-23T11:29:44.132Z,31.50
2022-08-23T11:32:49.630Z,31.40
2022-08-23T11:35:38.937Z,31.40
2022-08-23T11:38:13.143Z,31.20
2022-08-23T11:41:15.893Z,31.10
2022-08-23T11:43:47.744Z,31.20
2022-08-23T11:46:34.628Z,31.20
2022-08-23T11:49:40.934Z,31.40
2022-08-23T11:52:20.199Z,31.60
2022-08-23T11:55:05.609Z,31.60
2022-08-23T11:57:53.025Z,31.50
2022-08-23T12:00:28.782Z,31.60
2022-08-23T12:03:03.937Z,31.60
2022-08-23T12:06:08.800Z,31.70
2022-08-23T12:08:55.171Z,31.70
2022-08-23T12:11:26.510Z,31.60
2022-08-23T12:14:21.234Z,31.40
2022-08-23T12:16:50.951Z,31.10
2022-08-23T12:19:35.846Z,30.90
2022-08-23T12:22:11.602Z,30.70
2022-08-23T12:24:44.863Z,30.60
2022-08-23T12:27:27.199Z,30.50
2022-08-23T12:30:02.607Z,30.60
2022-08-23T12:32:38.259Z,31.00
2022-08-23T12:35:26.452Z,31.20
2022-08-23T12:38:01.488Z,31.60
2022-08-23T12:40:34.886Z,31.90
2022-08-23T12:43:10.103Z,31.90
2022-08-23T12:45:49.931Z,31.90
2022-08-23T12:48:20.460Z,31.50
2022-08-23T12:50:55.800Z,31.30
2022-08-23T12:53:29.361Z,31.10
2022-08-23T12:56:02.512Z,31.00
2022-08-23T12:58:33.834Z,30.70
2022-08-23T13:01:06.050Z,30.50
2022-08-23T13:03:38.775Z,30.40
2022-08-23T13:06:11.152Z,30.30
2022-08-23T13:08:42.804Z,30.40
2022-08-23T13:11:12.806Z,30.50
2022-08-23T13:13:42.973Z,30.60
2022-08-23T13:16:33.961Z,30.60
2022-08-23T13:19:17.701Z,30.60
2022-08-23T13:21:45.809Z,30.50
2022-08-23T13:24:37.947Z,30.40
2022-08-23T13:27:22.597Z,30.10
2022-08-23T13:29:53.112Z,30.00
2022-08-23T13:32:35.680Z,29.90
2022-08-23T13:35:27.472Z,30.00
2022-08-23T13:37:59.118Z,29.80
2022-08-23T13:40:30.909Z,29.80
2022-08-23T13:43:03.224Z,29.80
2022-08-23T13:45:33.573Z,29.70
2022-08-23T13:48:10.160Z,29.70
2022-08-23T13:50:39.908Z,29.70
2022-08-23T13:53:14.707Z,29.70
2022-08-23T13:55:46.428Z,29.80
2022-08-23T13:58:19.198Z,30.10
2022-08-23T14:00:55.337Z,30.20
2022-08-23T14:03:27.382Z,30.40
2022-08-23T14:05:55.836Z,30.70
2022-08-23T14:08:24.204Z,31.10
2022-08-23T14:10:52.823Z,31.30
2022-08-23T14:13:25.244Z,31.50
2022-08-23T14:15:56.416Z,31.60
2022-08-23T14:18:27.388Z,31.50
2022-08-23T14:20:56.362Z,31.20
2022-08-23T14:23:25.200Z,30.90
2022-08-23T14:25:56.023Z,30.70
2022-08-23T14:28:29.494Z,30.50
2022-08-23T14:30:58.083Z,30.40
2022-08-23T14:33:27.433Z,30.30
2022-08-23T14:35:57.186Z,30.20
2022-08-23T14:38:25.413Z,30.10
2022-08-23T14:40:58.823Z,30.00
2022-08-23T14:43:27.540Z,29.80
2022-08-23T14:45:55.685Z,29.70
2022-08-23T14:48:25.238Z,29.70
2022-08-23T14:50:55.969Z,29.60
2022-08-23T14:53:26.609Z,29.60
2022-08-23T14:56:18.694Z,29.60
2022-08-23T14:58:42.927Z,29.70
2022-08-23T15:01:12.231Z,29.60
2022-08-23T15:03:41.801Z,29.60
2022-08-23T15:06:12.576Z,29.40
2022-08-23T15:08:40.965Z,29.40
2022-08-23T15:14:00.335Z,29.60
2022-08-23T15:16:29.193Z,29.70
2022-08-23T15:18:57.743Z,29.80
2022-08-23T15:21:27.125Z,29.90
2022-08-23T15:23:55.485Z,29.90
2022-08-23T15:26:26.116Z,30.00
2022-08-23T15:28:54.459Z,30.20
2022-08-23T15:31:22.806Z,30.30
2022-08-23T15:33:50.822Z,30.30
2022-08-23T15:36:19.388Z,30.10
2022-08-23T15:38:49.711Z,29.90
2022-08-23T15:41:19.762Z,29.70
2022-08-23T15:43:48.314Z,29.50
2022-08-23T15:46:20.135Z,29.40
2022-08-23T15:48:53.785Z,29.30
2022-08-23T15:51:21.814Z,29.20
2022-08-23T15:53:51.946Z,29.10
2022-08-23T15:56:23.121Z,29.00
2022-08-23T15:58:53.601Z,28.90
2022-08-23T16:01:24.668Z,28.80
2022-08-23T16:03:53.209Z,28.70
2022-08-23T16:06:22.039Z,28.60
2022-08-23T16:08:53.914Z,28.60
2022-08-23T16:11:22.906Z,28.60
2022-08-23T16:13:55.132Z,28.70
2022-08-23T16:16:26.140Z,28.70
2022-08-23T16:18:55.686Z,28.80
2022-08-23T16:21:26.946Z,28.90
2022-08-23T16:23:57.339Z,28.90
2022-08-23T16:26:34.671Z,29.00
2022-08-23T16:29:04.481Z,29.00
2022-08-23T16:31:38.653Z,29.10
2022-08-23T16:34:09.520Z,29.20
2022-08-23T16:36:38.012Z,29.20
2022-08-23T16:39:07.988Z,29.20
2022-08-23T16:41:36.073Z,29.20
2022-08-23T16:44:04.732Z,29.20
2022-08-23T16:46:33.276Z,29.20
2022-08-23T16:49:01.243Z,29.20
2022-08-23T16:51:29.368Z,29.20
2022-08-23T16:54:02.665Z,29.20
2022-08-23T16:56:34.006Z,29.20
2022-08-23T16:59:03.107Z,29.20
2022-08-23T17:01:33.093Z,29.20
2022-08-23T17:04:01.215Z,29.10
2022-08-23T17:06:29.220Z,29.10
2022-08-23T17:08:57.153Z,29.00
2022-08-23T17:11:27.805Z,29.00
2022-08-23T17:14:05.014Z,28.90
2022-08-23T17:16:34.014Z,28.80
2022-08-23T17:19:02.338Z,28.80
2022-08-23T17:21:30.621Z,28.80
2022-08-23T17:23:58.706Z,28.90
2022-08-23T17:26:26.748Z,28.90
2022-08-23T17:28:56.402Z,28.80
2022-08-23T17:31:27.002Z,28.80
2022-08-23T17:33:55.383Z,28.70
2022-08-23T17:36:29.653Z,28.60
2022-08-23T17:38:58.109Z,28.40
2022-08-23T17:41:28.307Z,28.40
2022-08-23T17:43:56.776Z,28.20
2022-08-23T17:46:26.311Z,28.10
2022-08-23T17:48:54.546Z,28.00
2022-08-23T17:51:22.665Z,27.90
2022-08-23T17:53:50.649Z,27.70
2022-08-23T17:56:18.671Z,27.60
2022-08-23T17:58:47.077Z,27.40
2022-08-23T18:01:15.325Z,27.30
2022-08-23T18:03:44.956Z,27.10
2022-08-23T18:06:17.212Z,26.90
2022-08-23T18:08:46.088Z,26.70
2022-08-23T18:11:14.622Z,26.60
2022-08-23T18:13:42.908Z,26.40
2022-08-23T18:16:10.948Z,26.30
2022-08-23T18:18:40.432Z,26.10
2022-08-23T18:21:12.565Z,26.00
2022-08-23T18:23:40.928Z,25.90
2022-08-23T18:26:31.522Z,25.70
2022-08-23T18:28:58.952Z,25.50
2022-08-23T18:31:27.463Z,25.40
2022-08-23T18:34:00.170Z,25.30
2022-08-23T18:36:30.775Z,25.20
2022-08-23T18:38:58.793Z,25.10
2022-08-23T18:41:26.780Z,24.90
2022-08-23T18:43:54.827Z,24.80
2022-08-23T18:46:23.187Z,24.70
2022-08-23T18:48:53.354Z,24.60
2022-08-23T18:51:23.123Z,24.50
2022-08-23T18:53:52.916Z,24.50
2022-08-23T18:56:20.867Z,24.40
2022-08-23T18:58:49.027Z,24.30
2022-08-23T19:01:24.616Z,24.20
2022-08-23T19:03:53.429Z,24.10
2022-08-23T19:06:21.479Z,24.10
2022-08-23T19:08:49.468Z,24.00
2022-08-23T19:11:20.003Z,23.90
2022-08-23T19:13:50.970Z,23.90
2022-08-23T19:16:20.925Z,23.80
2022-08-23T19:18:51.023Z,23.70
2022-08-23T19:21:21.567Z,23.70
2022-08-23T19:23:51.761Z,23.60
2022-08-23T19:26:23.765Z,23.60
2022-08-23T19:28:52.090Z,23.50
2022-08-23T19:31:20.333Z,23.40
2022-08-23T19:33:48.937Z,23.30
2022-08-23T19:36:42.775Z,23.30
2022-08-23T19:39:05.376Z,23.20
2022-08-23T19:41:34.688Z,23.20
2022-08-23T19:44:02.695Z,23.10
2022-08-23T19:46:31.217Z,23.00
2022-08-23T19:48:59.297Z,22.90
2022-08-23T19:51:28.071Z,22.90
2022-08-23T19:54:10.915Z,22.80
2022-08-23T19:56:43.223Z,22.70
2022-08-23T19:59:15.053Z,22.70
2022-08-23T20:01:43.365Z,22.60
2022-08-23T20:04:11.908Z,22.60
2022-08-23T20:06:40.540Z,22.50
2022-08-23T20:09:09.322Z,22.50
2022-08-23T20:11:38.340Z,22.50
2022-08-23T20:14:07.920Z,22.50
2022-08-23T20:16:38.216Z,22.40
2022-08-23T20:19:09.657Z,22.40
2022-08-23T20:21:38.610Z,22.40
2022-08-23T20:24:07.145Z,22.30
2022-08-23T20:26:38.978Z,22.30
2022-08-23T20:29:10.169Z,22.30
2022-08-23T20:31:40.827Z,22.20
2022-08-23T20:34:09.785Z,22.20
2022-08-23T20:36:38.011Z,22.20
2022-08-23T20:39:06.622Z,22.10
2022-08-23T20:41:37.099Z,22.10
2022-08-23T20:44:08.946Z,22.10
2022-08-23T20:46:37.474Z,22.10
2022-08-23T20:49:06.074Z,22.10
2022-08-23T20:51:36.512Z,22.00
2022-08-23T20:54:05.445Z,22.00
2022-08-23T20:56:33.566Z,22.00
2022-08-23T20:59:01.931Z,22.00
2022-08-23T21:01:31.467Z,22.00
2022-08-23T21:04:00.050Z,22.00
2022-08-23T21:06:30.163Z,22.00
2022-08-23T21:09:00.327Z,21.90
2022-08-23T21:11:29.829Z,21.90
2022-08-23T21:13:58.784Z,21.80
2022-08-23T21:16:27.624Z,21.80
2022-08-23T21:18:57.154Z,21.80
2022-08-23T21:21:25.787Z,21.70
2022-08-23T21:23:54.733Z,21.70
2022-08-23T21:26:23.428Z,21.70
2022-08-23T21:28:51.949Z,21.60
2022-08-23T21:31:24.116Z,21.60
2022-08-23T21:33:53.215Z,21.50
2022-08-23T21:36:24.751Z,21.50
2022-08-23T21:38:52.742Z,21.40
2022-08-23T21:41:30.267Z,21.40
2022-08-23T21:43:58.257Z,21.40
2022-08-23T21:46:26.429Z,21.30
2022-08-23T21:48:54.581Z,21.30
2022-08-23T21:51:23.971Z,21.40
2022-08-23T21:53:51.956Z,21.40
2022-08-23T21:56:20.470Z,21.50
2022-08-23T21:58:50.603Z,21.60
2022-08-23T22:01:19.530Z,21.50
2022-08-23T22:03:47.943Z,21.50
2022-08-23T22:06:18.803Z,21.40
2022-08-23T22:08:48.133Z,21.40
2022-08-23T22:11:16.618Z,21.30
2022-08-23T22:13:44.700Z,21.30
2022-08-23T22:16:13.351Z,21.30
2022-08-23T22:18:42.709Z,21.20
2022-08-23T22:21:11.627Z,21.20
2022-08-23T22:23:43.177Z,21.10
2022-08-23T22:26:14.103Z,21.10
2022-08-23T22:28:44.455Z,21.10
2022-08-23T22:31:14.367Z,21.00
2022-08-23T22:33:43.849Z,21.10
2022-08-23T22:36:14.974Z,21.00
2022-08-23T22:38:43.669Z,21.00
2022-08-23T22:41:16.687Z,20.90
2022-08-23T22:43:44.849Z,20.90
2022-08-23T22:46:12.902Z,20.80
2022-08-23T22:48:41.319Z,20.80
2022-08-23T22:51:11.324Z,20.70
2022-08-23T22:53:41.706Z,20.70
2022-08-23T22:56:15.354Z,20.70
2022-08-23T22:58:43.409Z,20.60
2022-08-23T23:01:18.198Z,20.60
2022-08-23T23:03:46.868Z,20.60
2022-08-23T23:06:17.643Z,20.60
2022-08-23T23:08:45.627Z,20.60
2022-08-23T23:11:17.181Z,20.60
2022-08-23T23:13:45.520Z,20.60
2022-08-23T23:16:16.329Z,20.60
2022-08-23T23:19:05.793Z,20.50
2022-08-23T23:21:34.964Z,20.50
2022-08-23T23:24:03.781Z,20.50
2022-08-23T23:26:33.074Z,20.50
2022-08-23T23:29:01.158Z,20.40
2022-08-23T23:31:29.690Z,20.40
2022-08-23T23:33:58.436Z,20.40
2022-08-23T23:36:26.657Z,20.30
2022-08-23T23:38:54.729Z,20.30
2022-08-23T23:41:22.714Z,20.30
2022-08-23T23:43:52.176Z,20.30
2022-08-23T23:46:21.156Z,20.20
2022-08-23T23:48:50.149Z,20.20
2022-08-23T23:51:21.272Z,20.20
2022-08-23T23:53:49.408Z,20.10
2022-08-23T23:56:18.630Z,20.00
2022-08-23T23:58:47.652Z,20.00
